Time;durP1;ratioP1;P1;durP2;ratioP2;P2;SDS_P1;SDS_P2;PMS_P1;PMS_P2;Temp;Humidity;BMP_temperature;BMP_pressure;BME280_temperature;BME280_humidity;BME280_pressure;Samples;Min_cycle;Max_cycle;Signal;HPM_P1;HPM_P2
2023/01/13 00:01:37;;;;;;;1.95;1.80;;;9.10;99.90;;;;;;4947013;28;20138;-77
2023/01/13 00:04:04;;;;;;;2.05;1.95;;;9.10;99.90;;;;;;4937934;28;20542;-79
2023/01/13 00:06:30;;;;;;;1.95;1.85;;;9.20;99.90;;;;;;4945377;28;20036;-78
2023/01/13 00:08:57;;;;;;;1.90;1.90;;;9.20;99.90;;;;;;4948139;28;20044;-78
2023/01/13 00:11:25;;;;;;;2.20;2.10;;;9.20;99.90;;;;;;4945266;28;20050;-78
2023/01/13 00:13:52;;;;;;;2.40;2.30;;;9.20;99.90;;;;;;4937423;28;20055;-78
2023/01/13 00:16:19;;;;;;;2.50;2.40;;;9.30;99.90;;;;;;4942866;28;20043;-76
2023/01/13 00:18:47;;;;;;;2.35;2.28;;;9.30;99.90;;;;;;4934685;28;20071;-78
2023/01/13 00:21:20;;;;;;;2.30;2.20;;;9.30;99.90;;;;;;4947710;28;20046;-78
2023/01/13 00:23:47;;;;;;;2.47;2.22;;;9.30;99.90;;;;;;4940683;28;20043;-78
2023/01/13 00:26:18;;;;;;;1.95;1.95;;;9.20;99.90;;;;;;4948257;28;20054;-77
2023/01/13 00:28:45;;;;;;;2.20;2.10;;;9.20;99.90;;;;;;4947238;28;20635;-77
2023/01/13 00:31:19;;;;;;;2.20;2.10;;;9.20;99.90;;;;;;4938757;28;20043;-79
2023/01/13 00:33:48;;;;;;;2.00;2.00;;;9.30;99.90;;;;;;4946932;28;20047;-79
2023/01/13 00:36:17;;;;;;;2.20;2.10;;;9.30;99.90;;;;;;4949348;28;20397;-79
2023/01/13 00:38:44;;;;;;;2.08;2.00;;;9.30;99.90;;;;;;4948224;28;20047;-78
2023/01/13 00:41:21;;;;;;;1.95;1.85;;;9.30;99.90;;;;;;4940965;28;20038;-79
2023/01/13 00:43:49;;;;;;;1.40;1.40;;;9.30;99.90;;;;;;4941498;28;20588;-79
2023/01/13 00:46:20;;;;;;;1.30;1.30;;;9.30;99.90;;;;;;4939691;28;20592;-79
2023/01/13 00:48:48;;;;;;;2.05;1.27;;;9.20;99.90;;;;;;4962367;28;20039;-80
2023/01/13 00:51:20;;;;;;;1.00;1.00;;;9.20;99.90;;;;;;4946752;28;20154;-78
2023/01/13 00:53:49;;;;;;;1.38;1.20;;;9.10;99.90;;;;;;4942694;28;20053;-79
2023/01/13 00:56:19;;;;;;;0.90;0.90;;;9.10;99.90;;;;;;4945957;28;20043;-80
2023/01/13 00:59:04;;;;;;;0.98;0.98;;;9.10;99.90;;;;;;4951033;28;20093;-79
2023/01/13 01:01:30;;;;;;;2.20;1.10;;;9.10;99.90;;;;;;4944515;28;20043;-80
2023/01/13 01:03:57;;;;;;;1.30;1.20;;;9.20;99.90;;;;;;4936228;28;20047;-79
2023/01/13 01:06:25;;;;;;;1.70;1.00;;;9.20;99.90;;;;;;4945559;28;20043;-79
2023/01/13 01:08:53;;;;;;;1.75;0.85;;;9.20;99.90;;;;;;4945707;28;20491;-78
2023/01/13 01:11:22;;;;;;;1.33;1.25;;;9.10;99.90;;;;;;4940057;28;20048;-79
2023/01/13 01:13:51;;;;;;;1.00;1.00;;;9.20;99.90;;;;;;4941155;28;20043;-79
2023/01/13 01:16:20;;;;;;;1.20;1.10;;;9.30;99.90;;;;;;4934680;28;20043;-79
2023/01/13 01:18:48;;;;;;;1.20;1.20;;;9.30;99.90;;;;;;4944751;28;20047;-80
2023/01/13 01:21:16;;;;;;;1.30;1.30;;;9.30;99.90;;;;;;4942120;28;20636;-79
2023/01/13 01:23:43;;;;;;;1.20;1.20;;;9.30;99.90;;;;;;4942299;28;20044;-79
2023/01/13 01:26:16;;;;;;;1.70;1.60;;;9.40;99.90;;;;;;4938873;28;20081;-79
2023/01/13 01:28:43;;;;;;;1.90;1.90;;;9.40;99.90;;;;;;4947876;28;20162;-79
2023/01/13 01:31:17;;;;;;;2.40;2.30;;;9.40;99.90;;;;;;4932474;28;20040;-79
2023/01/13 01:33:46;;;;;;;2.17;2.15;;;9.50;99.90;;;;;;4946756;28;20043;-79
2023/01/13 01:36:15;;;;;;;3.00;2.90;;;9.50;99.90;;;;;;4938894;28;20035;-78
2023/01/13 01:38:42;;;;;;;3.58;3.47;;;9.60;99.90;;;;;;4942409;28;20047;-78
2023/01/13 01:41:16;;;;;;;4.45;4.32;;;9.60;99.90;;;;;;4942756;28;20039;-78
2023/01/13 01:44:03;;;;;;;4.75;4.55;;;9.60;99.90;;;;;;4936781;28;20465;-78
2023/01/13 01:46:48;;;;;;;5.10;4.90;;;9.60;99.90;;;;;;4941701;28;20051;-78
2023/01/13 01:49:34;;;;;;;5.03;4.82;;;9.60;99.90;;;;;;4942816;28;20175;-78
2023/01/13 01:52:41;;;;;;;4.50;4.30;;;9.60;99.90;;;;;;4928198;28;20172;-77
2023/01/13 01:55:16;;;;;;;4.50;4.30;;;9.50;99.90;;;;;;4944553;28;20066;-79
2023/01/13 01:57:43;;;;;;;3.70;3.40;;;9.50;99.90;;;;;;4928981;28;20043;-77
2023/01/13 02:00:11;;;;;;;3.20;3.00;;;9.50;99.90;;;;;;4947939;28;20031;-79
2023/01/13 02:02:38;;;;;;;3.15;3.05;;;9.50;99.90;;;;;;4950252;28;20616;-78
2023/01/13 02:05:05;;;;;;;3.38;3.28;;;9.50;99.90;;;;;;4942545;28;20039;-78
2023/01/13 02:07:34;;;;;;;3.00;2.90;;;9.40;99.90;;;;;;4947686;28;20097;-77
2023/01/13 02:10:06;;;;;;;3.47;2.60;;;9.50;99.90;;;;;;4948280;28;20031;-78
2023/01/13 02:12:34;;;;;;;2.40;2.30;;;9.50;99.90;;;;;;4944974;28;20141;-77
2023/01/13 02:15:03;;;;;;;2.83;2.60;;;9.40;99.90;;;;;;4941057;28;20058;-78
2023/01/13 02:17:49;;;;;;;5.32;3.90;;;9.40;99.90;;;;;;4946292;28;20050;-77
2023/01/13 02:20:37;;;;;;;6.20;5.25;;;9.40;99.90;;;;;;4946206;28;20043;-78
2023/01/13 02:24:52;;;;;;;6.82;6.05;;;9.30;99.90;;;;;;4944738;28;20071;-77
2023/01/13 02:26:10;;;;;;;10.60;10.00;;;9.30;99.90;;;;;;4946311;28;20039;-77
2023/01/13 02:32:14;;;;;;;12.60;12.10;;;9.20;99.90;;;;;;4946991;28;20645;-77
2023/01/13 02:35:05;;;;;;;14.05;13.05;;;9.10;99.90;;;;;;4942317;28;20042;-77
2023/01/13 02:37:38;;;;;;;13.07;12.18;;;9.10;99.90;;;;;;4945788;28;20047;-77
2023/01/13 02:40:29;;;;;;;13.90;12.90;;;9.00;99.90;;;;;;4943127;28;20048;-76
2023/01/13 02:46:14;;;;;;;12.90;11.70;;;8.90;99.90;;;;;;4946247;28;20039;-76
2023/01/13 02:52:55;;;;;;;12.65;11.65;;;8.80;99.90;;;;;;4957569;28;20047;-77
2023/01/13 02:55:29;;;;;;;12.40;11.68;;;8.80;99.90;;;;;;5013319;28;20045;-77
2023/01/13 02:57:58;;;;;;;12.23;11.50;;;8.80;99.90;;;;;;4949686;28;20047;-76
2023/01/13 03:00:25;;;;;;;12.57;11.88;;;8.80;99.90;;;;;;4938890;28;20473;-76
2023/01/13 03:02:52;;;;;;;13.30;12.27;;;8.80;99.90;;;;;;4934283;28;20480;-78
2023/01/13 03:05:19;;;;;;;13.63;12.60;;;8.90;99.90;;;;;;4941577;28;20044;-76
2023/01/13 03:07:55;;;;;;;13.20;12.30;;;8.90;99.90;;;;;;4942602;28;20097;-76
2023/01/13 03:10:46;;;;;;;13.25;12.02;;;8.90;99.90;;;;;;4936593;28;20131;-76
2023/01/13 03:13:50;;;;;;;13.60;12.60;;;8.80;99.90;;;;;;4938263;28;20057;-76
2023/01/13 03:16:29;;;;;;;12.80;12.10;;;8.80;99.90;;;;;;4933680;28;20054;-77
2023/01/13 03:18:58;;;;;;;13.85;12.70;;;8.80;99.90;;;;;;4945066;28;20057;-77
2023/01/13 03:21:42;;;;;;;12.65;12.00;;;8.70;99.90;;;;;;4940490;28;20051;-77
2023/01/13 03:24:26;;;;;;;13.38;12.27;;;8.70;99.90;;;;;;4940609;28;20150;-77
2023/01/13 03:27:03;;;;;;;14.35;13.20;;;8.70;99.90;;;;;;4943717;28;20050;-78
2023/01/13 03:29:35;;;;;;;14.57;13.40;;;8.70;99.90;;;;;;4942629;28;20077;-76
2023/01/13 03:32:11;;;;;;;15.48;14.38;;;8.60;99.90;;;;;;4943949;28;20036;-76
2023/01/13 03:34:50;;;;;;;15.60;14.60;;;8.60;99.90;;;;;;4944678;28;20054;-77
2023/01/13 03:37:21;;;;;;;15.15;14.20;;;8.50;99.90;;;;;;4939193;28;20047;-77
2023/01/13 03:39:58;;;;;;;15.18;14.38;;;8.40;99.90;;;;;;4946986;28;20589;-77
2023/01/13 03:42:29;;;;;;;15.40;14.55;;;8.40;99.90;;;;;;4948286;28;20070;-76
2023/01/13 03:45:16;;;;;;;14.95;14.15;;;8.30;99.90;;;;;;4947167;28;20047;-77
2023/01/13 03:47:49;;;;;;;15.27;14.40;;;8.30;99.90;;;;;;4955270;28;20043;-77
2023/01/13 03:50:19;;;;;;;15.77;14.77;;;8.20;99.90;;;;;;4955165;28;20050;-77
2023/01/13 03:53:22;;;;;;;15.27;14.38;;;8.20;99.90;;;;;;4955236;28;20230;-77
2023/01/13 03:55:58;;;;;;;15.88;14.88;;;8.10;99.90;;;;;;4946721;28;20039;-77
2023/01/13 03:58:29;;;;;;;16.60;15.25;;;8.00;99.90;;;;;;4937907;28;20047;-77
2023/01/13 04:01:02;;;;;;;16.55;15.38;;;8.00;99.90;;;;;;4936950;28;20092;-77
2023/01/13 04:03:40;;;;;;;17.27;16.05;;;8.00;99.90;;;;;;4942526;28;20364;-77
2023/01/13 04:06:21;;;;;;;16.38;15.38;;;8.00;99.90;;;;;;4936303;28;20055;-77
2023/01/13 04:08:57;;;;;;;17.38;16.17;;;7.90;99.90;;;;;;4943562;28;20043;-77
2023/01/13 04:11:34;;;;;;;16.83;15.90;;;7.80;99.90;;;;;;4936648;28;20039;-77
2023/01/13 04:14:03;;;;;;;17.50;16.05;;;7.80;99.90;;;;;;4945460;28;20500;-76
2023/01/13 04:16:30;;;;;;;17.35;16.23;;;7.80;99.90;;;;;;4933909;28;20055;-77
2023/01/13 04:18:57;;;;;;;17.65;16.20;;;7.70;99.90;;;;;;4931994;28;20058;-77
2023/01/13 04:21:24;;;;;;;16.83;15.60;;;7.70;99.90;;;;;;4942055;28;20057;-77
2023/01/13 04:23:52;;;;;;;16.35;15.02;;;7.70;99.90;;;;;;4938233;28;20055;-77
2023/01/13 04:26:19;;;;;;;16.27;15.15;;;7.70;99.90;;;;;;4944652;28;20758;-77
2023/01/13 04:28:46;;;;;;;16.98;15.73;;;7.80;99.90;;;;;;4938705;28;20077;-77
2023/01/13 04:31:13;;;;;;;17.20;15.73;;;7.70;99.90;;;;;;4935761;28;20043;-77
2023/01/13 04:33:40;;;;;;;17.05;15.95;;;7.70;99.90;;;;;;4929618;28;20070;-77
2023/01/13 04:36:07;;;;;;;16.85;15.57;;;7.70;99.90;;;;;;4941800;28;20051;-77
2023/01/13 04:38:34;;;;;;;16.63;15.63;;;7.60;99.90;;;;;;4931375;28;20081;-77
2023/01/13 04:41:00;;;;;;;16.50;15.35;;;7.60;99.90;;;;;;4940622;28;21241;-77
2023/01/13 04:43:27;;;;;;;16.98;15.68;;;7.50;99.90;;;;;;4942834;28;20562;-77
2023/01/13 04:45:54;;;;;;;16.95;15.63;;;7.50;99.90;;;;;;4934851;28;20043;-77
2023/01/13 04:48:21;;;;;;;16.23;15.30;;;7.40;99.90;;;;;;4935188;28;20054;-78
2023/01/13 04:50:47;;;;;;;16.88;15.63;;;7.40;99.90;;;;;;4939838;28;20047;-77
2023/01/13 04:53:14;;;;;;;17.33;16.00;;;7.30;99.90;;;;;;4934822;28;20055;-77
2023/01/13 04:55:43;;;;;;;18.33;16.73;;;7.30;99.90;;;;;;4945107;28;20069;-77
2023/01/13 04:58:10;;;;;;;16.35;15.15;;;7.20;99.90;;;;;;4925894;28;20528;-77
2023/01/13 05:00:37;;;;;;;16.15;15.15;;;7.20;99.90;;;;;;4937684;28;20160;-77
2023/01/13 05:03:04;;;;;;;17.33;15.77;;;7.10;99.90;;;;;;4929183;28;20051;-77
2023/01/13 05:05:31;;;;;;;18.23;16.80;;;7.20;99.90;;;;;;4938489;28;20222;-77
2023/01/13 05:07:58;;;;;;;17.98;16.10;;;7.10;99.90;;;;;;4942251;28;20051;-77
2023/01/13 05:10:25;;;;;;;17.63;15.77;;;7.10;99.90;;;;;;4935994;28;20130;-77
2023/01/13 05:18:26;;;;;;;17.42;15.88;;;6.90;99.90;;;;;;4938435;28;20097;-78
2023/01/13 05:20:52;;;;;;;18.05;16.27;;;6.90;99.90;;;;;;4937398;28;20664;-77
2023/01/13 05:26:04;;;;;;;17.90;15.57;;;6.90;99.90;;;;;;4938483;28;20479;-77
2023/01/13 05:28:33;;;;;;;16.63;15.32;;;6.80;99.90;;;;;;4943475;28;20043;-77
2023/01/13 05:31:00;;;;;;;17.00;15.43;;;6.80;99.90;;;;;;4950542;28;20138;-77
2023/01/13 05:33:26;;;;;;;17.73;16.20;;;6.80;99.90;;;;;;4936018;28;20051;-77
2023/01/13 05:35:53;;;;;;;17.50;15.77;;;6.80;99.90;;;;;;4944303;28;20039;-77
2023/01/13 05:38:20;;;;;;;17.38;15.95;;;6.70;99.90;;;;;;4944150;28;21501;-77
2023/01/13 05:43:33;;;;;;;;;;;6.70;99.90;;;;;;4941027;28;20084;-77
2023/01/13 05:46:08;;;;;;;17.33;15.73;;;6.80;99.90;;;;;;4947572;28;19930;-76
2023/01/13 05:48:40;;;;;;;18.23;16.40;;;6.70;99.90;;;;;;4941958;28;20088;-76
2023/01/13 05:51:09;;;;;;;16.35;15.45;;;6.70;99.90;;;;;;4933643;28;20367;-77
2023/01/13 05:53:36;;;;;;;18.10;16.27;;;6.80;99.90;;;;;;4935814;28;20051;-77
2023/01/13 05:56:04;;;;;;;16.35;14.88;;;6.80;99.90;;;;;;4945743;28;20415;-76
2023/01/13 05:58:31;;;;;;;17.17;15.40;;;6.80;99.90;;;;;;4941025;28;20138;-77
2023/01/13 06:01:00;;;;;;;17.95;16.20;;;6.80;99.90;;;;;;4942774;28;20045;-78
2023/01/13 06:03:27;;;;;;;18.10;16.15;;;6.80;99.90;;;;;;4938162;28;20086;-78
2023/01/13 06:06:01;;;;;;;23.95;16.60;;;6.80;99.90;;;;;;4941654;28;20067;-77
2023/01/13 06:08:28;;;;;;;20.63;16.35;;;6.90;99.90;;;;;;4948132;28;20051;-77
2023/01/13 06:10:55;;;;;;;18.55;16.83;;;6.90;99.90;;;;;;4940361;28;20097;-77
2023/01/13 06:13:24;;;;;;;21.58;17.02;;;6.90;99.90;;;;;;4938598;28;20473;-77
2023/01/13 06:15:55;;;;;;;18.35;16.88;;;7.00;99.90;;;;;;4947894;28;20424;-78
2023/01/13 06:18:22;;;;;;;22.88;16.95;;;7.10;99.90;;;;;;4935624;28;20073;-78
2023/01/13 06:20:52;;;;;;;19.45;17.38;;;7.10;99.90;;;;;;4935259;28;20066;-77
2023/01/13 06:23:19;;;;;;;19.15;17.38;;;7.20;99.90;;;;;;4943940;28;20050;-77
2023/01/13 06:26:08;;;;;;;22.77;17.45;;;7.20;99.90;;;;;;4938738;28;20586;-77
2023/01/13 06:28:35;;;;;;;19.15;17.42;;;7.30;99.90;;;;;;4943110;28;20055;-77
2023/01/13 06:31:05;;;;;;;25.52;17.23;;;7.40;99.90;;;;;;4944801;28;20043;-77
2023/01/13 06:33:39;;;;;;;20.20;18.15;;;7.40;99.90;;;;;;4950543;28;20126;-77
2023/01/13 06:36:11;;;;;;;25.85;17.65;;;7.40;99.90;;;;;;4944981;28;20049;-78
2023/01/13 06:38:42;;;;;;;18.13;16.70;;;7.40;99.90;;;;;;4946067;28;20046;-77
2023/01/13 06:41:09;;;;;;;20.95;16.85;;;7.40;99.90;;;;;;4963097;28;20066;-78
2023/01/13 06:43:37;;;;;;;19.42;16.25;;;7.40;99.90;;;;;;4950515;28;20070;-78
2023/01/13 06:46:03;;;;;;;22.88;16.35;;;7.40;99.90;;;;;;4942305;28;20146;-77
2023/01/13 06:48:33;;;;;;;25.90;16.13;;;7.30;99.90;;;;;;4939204;28;20148;-77
2023/01/13 06:51:01;;;;;;;17.13;15.48;;;7.20;99.90;;;;;;4942979;28;20044;-77
2023/01/13 06:53:28;;;;;;;19.90;15.38;;;7.10;99.90;;;;;;5060623;23;20074;-71
2023/01/13 06:55:55;;;;;;;18.90;16.35;;;7.10;99.90;;;;;;5040585;28;20076;-70
2023/01/13 06:58:21;;;;;;;16.35;14.70;;;7.10;99.90;;;;;;5017674;28;20064;-69
2023/01/13 07:00:50;;;;;;;20.67;15.90;;;7.00;99.90;;;;;;5044732;28;20033;-72
2023/01/13 07:03:18;;;;;;;16.85;15.15;;;6.90;99.90;;;;;;5048243;28;20044;-72
2023/01/13 07:05:51;;;;;;;30.88;16.88;;;6.90;99.90;;;;;;5049903;28;20475;-69
2023/01/13 07:08:18;;;;;;;18.98;15.20;;;6.90;99.90;;;;;;5031472;28;20048;-69
2023/01/13 07:10:45;;;;;;;22.83;17.00;;;6.90;99.90;;;;;;5051491;28;20671;-69
2023/01/13 07:16:00;;;;;;;18.42;16.80;;;6.80;99.90;;;;;;5052482;28;20513;-72
2023/01/13 07:18:30;;;;;;;18.30;16.65;;;6.90;99.90;;;;;;5028581;28;20413;-70
2023/01/13 07:20:59;;;;;;;18.90;16.98;;;6.80;99.90;;;;;;5033161;28;20047;-69
2023/01/13 07:23:31;;;;;;;19.58;17.48;;;6.80;99.90;;;;;;5048362;28;20145;-72
2023/01/13 07:25:59;;;;;;;19.15;17.15;;;6.90;99.90;;;;;;5052996;28;20060;-72
2023/01/13 07:28:26;;;;;;;19.80;16.95;;;6.90;99.90;;;;;;5042583;28;20048;-72
2023/01/13 07:30:54;;;;;;;19.00;16.95;;;7.00;99.90;;;;;;5052410;28;20040;-69
2023/01/13 07:33:20;;;;;;;19.73;17.63;;;7.10;99.90;;;;;;5037984;28;20044;-69
2023/01/13 07:35:54;;;;;;;19.27;16.20;;;7.10;99.90;;;;;;5026775;28;20049;-70
2023/01/13 07:38:21;;;;;;;17.48;15.82;;;7.00;99.90;;;;;;5047432;28;20044;-69
2023/01/13 07:40:48;;;;;;;17.40;15.93;;;7.10;99.90;;;;;;5050486;28;20039;-70
2023/01/13 07:43:32;;;;;;;17.65;16.05;;;7.10;99.90;;;;;;5045138;28;20260;-70
2023/01/13 07:46:04;;;;;;;22.17;18.75;;;7.00;99.90;;;;;;5043226;28;20260;-70
2023/01/13 07:48:32;;;;;;;25.27;20.52;;;7.10;99.90;;;;;;5027524;28;20053;-73
2023/01/13 07:51:04;;;;;;;19.73;18.08;;;7.00;99.90;;;;;;5030468;28;20037;-70
2023/01/13 07:53:31;;;;;;;25.58;23.60;;;6.90;99.90;;;;;;5028585;28;20048;-70
2023/01/13 07:55:59;;;;;;;24.95;23.05;;;6.90;99.90;;;;;;5051246;28;20476;-69
2023/01/13 07:58:26;;;;;;;26.02;23.88;;;6.80;99.90;;;;;;5011845;28;20078;-69
2023/01/13 08:00:54;;;;;;;24.65;22.63;;;6.80;99.90;;;;;;5053016;28;20064;-70
2023/01/13 08:03:22;;;;;;;24.08;20.77;;;6.80;99.90;;;;;;5046578;28;20355;-68
2023/01/13 08:05:49;;;;;;;23.15;21.55;;;6.80;99.90;;;;;;5044432;28;20052;-70
2023/01/13 08:08:16;;;;;;;24.63;22.40;;;6.80;99.90;;;;;;5015255;28;20045;-69
2023/01/13 08:10:43;;;;;;;24.77;23.02;;;6.90;99.90;;;;;;5040436;28;20041;-70
2023/01/13 08:13:19;;;;;;;28.13;23.55;;;6.90;99.90;;;;;;5038828;28;20212;-70
2023/01/13 08:15:51;;;;;;;27.73;25.23;;;6.90;99.90;;;;;;5050643;28;20261;-70
2023/01/13 08:18:21;;;;;;;26.85;24.30;;;7.00;99.90;;;;;;5050481;28;20052;-70
2023/01/13 08:20:51;;;;;;;24.85;22.95;;;7.00;99.90;;;;;;5026553;28;20127;-70
2023/01/13 08:23:18;;;;;;;24.92;22.92;;;7.00;99.90;;;;;;5046903;28;20044;-72
2023/01/13 08:25:45;;;;;;;27.95;24.27;;;7.00;99.90;;;;;;5047130;28;20036;-72
2023/01/13 08:28:12;;;;;;;25.48;23.33;;;7.10;99.90;;;;;;5041369;28;20047;-70
2023/01/13 08:30:39;;;;;;;25.27;22.90;;;7.10;99.90;;;;;;5042694;28;20041;-71
2023/01/13 08:33:08;;;;;;;26.10;23.63;;;7.10;99.90;;;;;;5048407;28;20041;-72
2023/01/13 08:35:37;;;;;;;27.25;24.58;;;7.10;99.90;;;;;;5048742;28;20053;-72
2023/01/13 08:38:04;;;;;;;26.63;24.42;;;7.10;99.90;;;;;;5054845;28;20574;-72
2023/01/13 08:40:31;;;;;;;26.60;24.23;;;7.20;99.90;;;;;;5040106;28;21248;-70
2023/01/13 08:42:59;;;;;;;24.83;23.30;;;7.20;99.90;;;;;;5051018;28;20519;-71
2023/01/13 08:45:26;;;;;;;25.23;23.20;;;7.20;99.90;;;;;;5031142;28;20131;-70
2023/01/13 08:47:53;;;;;;;25.17;23.35;;;7.20;99.90;;;;;;5049744;28;20037;-72
2023/01/13 08:50:20;;;;;;;26.30;24.20;;;7.20;99.90;;;;;;5014359;28;20045;-72
2023/01/13 08:52:46;;;;;;;26.35;23.58;;;7.20;99.90;;;;;;5045953;28;20059;-72
2023/01/13 08:55:13;;;;;;;26.45;24.30;;;7.20;99.90;;;;;;5008419;28;20045;-72
2023/01/13 08:57:40;;;;;;;25.75;23.70;;;7.20;99.90;;;;;;5043996;28;20047;-72
2023/01/13 09:00:07;;;;;;;25.83;23.50;;;7.30;99.90;;;;;;5028825;28;20504;-72
2023/01/13 09:02:34;;;;;;;24.92;22.52;;;7.20;99.90;;;;;;5015263;28;20099;-72
2023/01/13 09:05:02;;;;;;;28.02;25.65;;;7.30;99.90;;;;;;5016156;28;20415;-72
2023/01/13 09:07:30;;;;;;;25.70;23.20;;;7.30;99.90;;;;;;5031756;28;20056;-72
2023/01/13 09:09:57;;;;;;;24.88;22.95;;;7.30;99.90;;;;;;5051147;28;20045;-72
2023/01/13 09:15:09;;;;;;;25.05;22.90;;;7.30;99.90;;;;;;5054450;28;20052;-72
2023/01/13 09:17:36;;;;;;;25.85;22.63;;;7.40;99.90;;;;;;5031908;28;20557;-72
2023/01/13 09:20:04;;;;;;;25.13;22.88;;;7.40;99.90;;;;;;5050141;28;20059;-72
2023/01/13 09:22:34;;;;;;;25.67;23.63;;;7.40;99.90;;;;;;5018940;28;20053;-72
2023/01/13 09:25:00;;;;;;;23.88;21.85;;;7.40;99.90;;;;;;5027882;28;20040;-72
2023/01/13 09:27:27;;;;;;;25.98;23.85;;;7.40;99.90;;;;;;5037453;28;20460;-73
2023/01/13 09:29:54;;;;;;;31.10;25.00;;;7.40;99.90;;;;;;5023140;28;20041;-74
2023/01/13 09:32:21;;;;;;;25.88;23.75;;;7.40;99.90;;;;;;5043102;28;20041;-74
2023/01/13 09:35:00;;;;;;;26.55;23.77;;;7.30;99.90;;;;;;5032660;28;20041;-74
2023/01/13 09:37:28;;;;;;;25.15;22.33;;;7.30;99.90;;;;;;5021169;28;20411;-73
2023/01/13 09:39:55;;;;;;;23.98;22.10;;;7.30;99.90;;;;;;5030403;28;20148;-74
2023/01/13 09:45:45;;;;;;;25.00;22.83;;;7.40;99.90;;;;;;5041833;28;20037;-74
2023/01/13 09:48:17;;;;;;;29.23;25.00;;;7.40;99.90;;;;;;5035954;28;20410;-73
2023/01/13 09:50:57;;;;;;;24.63;22.75;;;7.40;99.90;;;;;;5046356;28;20124;-73
2023/01/13 09:53:32;;;;;;;24.02;22.20;;;7.50;99.90;;;;;;5025837;28;20053;-74
2023/01/13 09:55:59;;;;;;;23.20;21.23;;;7.50;99.90;;;;;;5025904;28;20048;-74
2023/01/13 09:58:26;;;;;;;25.80;23.35;;;7.50;99.90;;;;;;5026651;28;20047;-73
2023/01/13 10:00:52;;;;;;;24.33;22.73;;;7.50;99.90;;;;;;5034865;28;20127;-74
2023/01/13 10:03:31;;;;;;;25.45;23.42;;;7.40;99.90;;;;;;5038895;28;20299;-74
2023/01/13 10:06:05;;;;;;;24.98;23.10;;;7.40;99.90;;;;;;5050739;28;20067;-74
2023/01/13 10:08:43;;;;;;;25.47;23.53;;;7.40;99.90;;;;;;5032709;28;20056;-74
2023/01/13 10:14:12;;;;;;;22.95;21.33;;;7.40;99.90;;;;;;5026743;28;20058;-74
2023/01/13 10:16:57;;;;;;;23.92;21.92;;;7.40;99.90;;;;;;5010162;28;20045;-74
2023/01/13 10:20:08;;;;;;;23.75;21.45;;;7.40;99.90;;;;;;5039442;28;20049;-74
2023/01/13 10:23:00;;;;;;;24.83;22.75;;;7.50;99.90;;;;;;4957457;28;20070;-74
2023/01/13 10:25:42;;;;;;;24.30;22.52;;;7.50;99.90;;;;;;5017302;28;20055;-74
2023/01/13 10:28:11;;;;;;;25.08;22.67;;;7.50;99.90;;;;;;5045124;28;20033;-74
2023/01/13 10:30:43;;;;;;;24.70;22.60;;;7.60;99.90;;;;;;5036232;28;20755;-74
2023/01/13 10:33:12;;;;;;;24.48;22.15;;;7.60;99.90;;;;;;5033522;28;20044;-74
2023/01/13 10:36:00;;;;;;;23.65;21.65;;;7.60;99.90;;;;;;5029428;28;20048;-74
2023/01/13 10:38:44;;;;;;;25.65;23.40;;;7.70;99.90;;;;;;5043755;28;20573;-74
2023/01/13 10:41:14;;;;;;;27.52;24.88;;;7.70;99.90;;;;;;5044370;28;20415;-74
2023/01/13 10:43:50;;;;;;;27.00;25.10;;;7.60;99.90;;;;;;5043196;28;20597;-73
2023/01/13 10:46:19;;;;;;;25.63;23.42;;;7.50;99.90;;;;;;5040260;28;20125;-72
2023/01/13 10:48:54;;;;;;;25.58;23.45;;;7.40;99.90;;;;;;5046499;28;20416;-73
2023/01/13 10:51:21;;;;;;;27.45;25.38;;;7.40;99.90;;;;;;5025595;28;20322;-74
2023/01/13 10:54:11;;;;;;;31.52;25.80;;;7.50;99.90;;;;;;5021381;28;20370;-72
2023/01/13 10:56:43;;;;;;;27.45;24.30;;;7.40;99.90;;;;;;5025940;28;20744;-72
2023/01/13 10:59:23;;;;;;;26.55;24.10;;;7.50;99.90;;;;;;5028009;28;20083;-72
2023/01/13 11:02:03;;;;;;;26.23;24.08;;;7.50;99.90;;;;;;5039121;28;20048;-71
2023/01/13 11:04:53;;;;;;;25.33;23.15;;;7.50;99.90;;;;;;5040045;28;20033;-74
2023/01/13 11:07:31;;;;;;;26.38;23.77;;;7.60;99.90;;;;;;5023412;28;20041;-71
2023/01/13 11:10:16;;;;;;;24.52;22.50;;;7.60;99.90;;;;;;5043266;28;20510;-70
2023/01/13 11:13:07;;;;;;;25.88;23.77;;;7.60;99.90;;;;;;5042886;28;20149;-72
2023/01/13 11:16:15;;;;;;;27.10;24.80;;;7.60;99.90;;;;;;5046384;28;20049;-74
2023/01/13 11:19:12;;;;;;;27.35;24.17;;;7.60;99.90;;;;;;5045217;28;20052;-73
2023/01/13 11:21:48;;;;;;;24.02;22.00;;;7.70;99.90;;;;;;5023921;28;20053;-74
2023/01/13 11:24:34;;;;;;;25.23;23.33;;;7.60;99.90;;;;;;5044235;28;20050;-73
2023/01/13 11:27:04;;;;;;;24.50;22.50;;;7.70;99.90;;;;;;5029739;28;20044;-72
2023/01/13 11:29:40;;;;;;;30.02;23.60;;;7.60;99.90;;;;;;5036463;28;20075;-71
2023/01/13 11:32:20;;;;;;;28.52;26.13;;;7.60;99.90;;;;;;5041633;28;20040;-72
2023/01/13 11:34:55;;;;;;;27.13;24.33;;;7.70;99.90;;;;;;5025657;28;20406;-73
2023/01/13 11:37:25;;;;;;;25.75;23.23;;;7.70;99.90;;;;;;5019932;28;20118;-72
2023/01/13 11:40:13;;;;;;;25.85;23.80;;;7.70;99.90;;;;;;5042862;28;20045;-72
2023/01/13 11:42:53;;;;;;;27.77;25.27;;;7.70;99.90;;;;;;5052182;28;20036;-73
2023/01/13 11:45:42;;;;;;;26.83;24.45;;;7.70;99.90;;;;;;5037315;28;20075;-72
2023/01/13 11:48:21;;;;;;;26.08;23.38;;;7.60;99.90;;;;;;5021284;28;20128;-73
2023/01/13 11:51:14;;;;;;;22.85;21.23;;;7.60;99.90;;;;;;5046477;28;20045;-74
2023/01/13 11:54:46;;;;;;;26.75;24.15;;;7.60;99.90;;;;;;5020507;28;20084;-71
2023/01/13 11:57:24;;;;;;;26.35;23.60;;;7.50;99.90;;;;;;4918652;28;20090;-75
2023/01/13 11:59:58;;;;;;;24.42;21.70;;;7.50;99.90;;;;;;4926545;28;20095;-73
2023/01/13 12:02:27;;;;;;;25.25;22.80;;;7.60;99.90;;;;;;5004750;28;20075;-74
2023/01/13 12:05:22;;;;;;;25.13;23.05;;;7.50;99.90;;;;;;5030953;28;20044;-72
2023/01/13 12:08:24;;;;;;;24.30;22.10;;;7.50;99.90;;;;;;5049796;28;20037;-74
2023/01/13 12:11:23;;;;;;;23.50;21.65;;;7.50;99.90;;;;;;5023429;28;20112;-74
2023/01/13 12:14:11;;;;;;;25.63;23.13;;;7.60;99.90;;;;;;5024873;28;20561;-73
2023/01/13 12:16:47;;;;;;;24.50;22.92;;;7.60;99.90;;;;;;5042849;28;20045;-73
2023/01/13 12:19:29;;;;;;;25.75;22.38;;;7.60;99.90;;;;;;5046613;28;20048;-74
2023/01/13 12:22:16;;;;;;;24.17;21.90;;;7.60;99.90;;;;;;5043157;28;20049;-73
2023/01/13 12:25:12;;;;;;;23.73;21.58;;;7.60;99.90;;;;;;5044692;28;20099;-74
2023/01/13 12:27:42;;;;;;;23.10;20.92;;;7.70;99.90;;;;;;4989055;28;20522;-73
2023/01/13 12:30:24;;;;;;;24.80;22.52;;;7.80;99.90;;;;;;5018050;28;20335;-73
2023/01/13 12:32:58;;;;;;;24.73;22.55;;;7.80;99.90;;;;;;5019915;28;20567;-73
2023/01/13 12:36:09;;;;;;;23.42;21.10;;;7.80;99.90;;;;;;5042992;28;20053;-73
2023/01/13 12:38:57;;;;;;;25.90;20.70;;;7.90;99.90;;;;;;5040059;28;20414;-74
2023/01/13 12:44:15;;;;;;;23.13;20.85;;;7.90;99.90;;;;;;5035329;28;20045;-73
2023/01/13 12:44:28;;;;;;;22.55;20.50;;;7.90;99.90;;;;;;5035182;28;20054;-73
2023/01/13 12:46:57;;;;;;;25.33;23.13;;;7.90;99.90;;;;;;5023132;28;20033;-73
2023/01/13 12:49:27;;;;;;;25.88;23.65;;;8.00;99.90;;;;;;5044183;28;20086;-73
2023/01/13 12:51:53;;;;;;;28.13;23.85;;;8.00;99.90;;;;;;5028773;28;20040;-73
2023/01/13 12:54:29;;;;;;;26.20;23.77;;;8.00;99.90;;;;;;5051653;28;20602;-73
2023/01/13 12:56:57;;;;;;;25.25;22.73;;;8.00;99.90;;;;;;5047999;28;20042;-73
2023/01/13 12:59:24;;;;;;;24.95;22.27;;;8.00;99.90;;;;;;5050876;28;20048;-74
2023/01/13 13:02:10;;;;;;;27.17;23.35;;;8.00;99.90;;;;;;5027762;28;20507;-73
2023/01/13 13:04:50;;;;;;;24.70;22.30;;;8.00;99.90;;;;;;5028044;28;20045;-73
2023/01/13 13:07:29;;;;;;;24.38;21.60;;;8.00;99.90;;;;;;5042845;28;20131;-74
2023/01/13 13:10:15;;;;;;;22.98;20.88;;;7.90;99.90;;;;;;5029927;28;20044;-72
2023/01/13 13:15:29;;;;;;;25.42;22.92;;;7.90;99.90;;;;;;5030312;28;20078;-72
2023/01/13 13:18:26;;;;;;;23.33;21.38;;;7.80;99.90;;;;;;5033609;28;20028;-72
2023/01/13 13:20:55;;;;;;;24.13;22.13;;;7.50;99.90;;;;;;5023972;28;20037;-72
2023/01/13 13:23:52;;;;;;;22.88;21.05;;;7.30;99.90;;;;;;5027003;28;20529;-72
2023/01/13 13:26:31;;;;;;;22.75;20.52;;;7.10;99.90;;;;;;5024808;28;20121;-72
2023/01/13 13:29:05;;;;;;;22.38;20.13;;;7.00;99.90;;;;;;5048497;28;20040;-71
2023/01/13 13:31:50;;;;;;;22.20;19.90;;;6.90;99.90;;;;;;5029943;28;20047;-74
2023/01/13 13:34:23;;;;;;;;;;;6.80;99.90;;;;;;5026350;28;20452;-72
2023/01/13 13:37:15;;;;;;;27.80;19.10;;;6.80;99.90;;;;;;5050145;28;20379;-72
2023/01/13 13:48:26;;;;;;;21.20;16.35;;;6.70;99.90;;;;;;5052222;28;20041;-71
2023/01/13 13:51:01;;;;;;;17.17;9.82;;;6.80;99.90;;;;;;5050355;28;20513;-72
2023/01/13 13:53:32;;;;;;;17.27;9.63;;;6.70;99.90;;;;;;5057898;28;20041;-76
2023/01/13 13:56:01;;;;;;;12.48;4.95;;;6.60;99.90;;;;;;5042296;28;20041;-74
2023/01/13 13:58:32;;;;;;;11.20;4.25;;;6.30;99.90;;;;;;5031228;28;20044;-76